createdAt,value
2018-04-14T00:06:53.508Z,1006.64
2018-04-14T00:16:53.475Z,1006.71
2018-04-14T00:26:53.522Z,1006.87
2018-04-14T00:36:53.483Z,1006.74
2018-04-14T00:46:53.555Z,1006.79
2018-04-14T00:56:53.516Z,1006.88
2018-04-14T01:06:53.575Z,1006.93
2018-04-14T01:16:53.535Z,1006.95
2018-04-14T01:26:53.603Z,1007.05
2018-04-14T01:36:53.573Z,1007.06
2018-04-14T01:46:53.534Z,1007.04
2018-04-14T01:56:53.606Z,1007.1
2018-04-14T02:06:53.544Z,1007.17
2018-04-14T02:16:53.619Z,1007.04
2018-04-14T02:26:53.576Z,1007.05
2018-04-14T02:36:53.631Z,1007.04
2018-04-14T02:46:53.599Z,1007.02
2018-04-14T02:56:53.654Z,1007.14
2018-04-14T03:06:53.613Z,1007.07
2018-04-14T03:16:53.691Z,1007.08
2018-04-14T03:26:53.644Z,1007.19
2018-04-14T03:36:53.703Z,1007.22
2018-04-14T03:46:53.682Z,1007.27
2018-04-14T03:56:53.628Z,1007.36
2018-04-14T04:06:53.689Z,1007.63
2018-04-14T04:16:53.644Z,1007.74
2018-04-14T04:26:53.740Z,1007.88
2018-04-14T04:36:53.695Z,1007.99
2018-04-14T04:46:53.751Z,1008.12
2018-04-14T04:56:53.706Z,1008.28
2018-04-14T05:06:53.773Z,1008.48
2018-04-14T05:16:53.732Z,1008.69
2018-04-14T05:26:53.800Z,1008.79
2018-04-14T05:36:53.771Z,1008.86
2018-04-14T05:46:53.812Z,1008.94
2018-04-14T05:56:53.787Z,1008.96
2018-04-14T06:06:53.851Z,1009.04
2018-04-14T06:16:53.809Z,1009.11
2018-04-14T06:26:53.861Z,1009.31
2018-04-14T06:36:53.829Z,1009.36
2018-04-14T06:46:53.785Z,1009.38
2018-04-14T06:56:53.845Z,1009.47
2018-04-14T07:06:53.825Z,1009.79
2018-04-14T07:16:53.864Z,1009.77
2018-04-14T07:26:53.842Z,1009.91
2018-04-14T07:36:53.922Z,1010.02
2018-04-14T07:46:53.854Z,1010.11
2018-04-14T07:56:53.928Z,1010.16
2018-04-14T08:06:53.874Z,1010.35
2018-04-14T08:16:53.955Z,1010.44
2018-04-14T08:26:53.918Z,1010.52
2018-04-14T08:36:53.986Z,1010.57
2018-04-14T08:46:53.927Z,1010.65
2018-04-14T08:56:53.993Z,1010.67
2018-04-14T09:06:55.154Z,1010.71
2018-04-14T09:16:54.558Z,1010.79
2018-04-14T09:26:53.983Z,1010.75
2018-04-14T09:36:54.578Z,1010.87
2018-04-14T09:46:54.001Z,1010.85
2018-04-14T09:56:54.285Z,1010.86
2018-04-14T10:06:54.135Z,1010.95
2018-04-14T10:16:54.080Z,1010.87
2018-04-14T10:26:54.047Z,1010.93
2018-04-14T10:36:55.041Z,1010.92
2018-04-14T10:46:54.083Z,1010.98
2018-04-14T10:56:54.048Z,1010.94
2018-04-14T11:06:54.094Z,1010.93
2018-04-14T11:16:54.065Z,1010.93
2018-04-14T11:26:54.116Z,1010.93
2018-04-14T11:36:54.177Z,1010.99
2018-04-14T11:46:54.152Z,1011.02
2018-04-14T11:56:54.125Z,1011.01
2018-04-14T12:16:54.196Z,1011.14
2018-04-14T12:26:54.146Z,1011.18
2018-04-14T12:36:54.104Z,1011.19
2018-04-14T12:46:54.208Z,1011.31
2018-04-14T12:56:54.157Z,1011.48
2018-04-14T13:06:54.108Z,1011.37
2018-04-14T13:16:55.708Z,1011.34
2018-04-14T13:26:55.142Z,1011.28
2018-04-14T13:36:54.206Z,1011.25
2018-04-14T13:46:54.145Z,1011.22
2018-04-14T13:56:54.220Z,1011.23
2018-04-14T14:06:54.182Z,1011.28
2018-04-14T14:16:54.143Z,1011.13
2018-04-14T14:26:54.186Z,1011.21
2018-04-14T14:36:54.143Z,1011.17
2018-04-14T14:46:54.119Z,1011.03
2018-04-14T14:56:54.181Z,1010.99
2018-04-14T15:06:54.155Z,1010.93
2018-04-14T15:16:54.211Z,1010.82
2018-04-14T15:26:54.162Z,1010.68
2018-04-14T15:36:54.222Z,1010.61
2018-04-14T15:46:54.415Z,1010.52
2018-04-14T15:56:54.197Z,1010.44
2018-04-14T16:06:54.190Z,1010.47
2018-04-14T16:16:54.163Z,1010.42
2018-04-14T16:26:54.131Z,1010.5
2018-04-14T16:36:54.192Z,1010.55
2018-04-14T16:46:54.167Z,1010.54
2018-04-14T16:56:54.285Z,1010.57
2018-04-14T17:07:03.822Z,1010.66
2018-04-14T17:16:54.136Z,1010.62
2018-04-14T17:26:54.206Z,1010.62
2018-04-14T17:36:54.140Z,1010.59
2018-04-14T17:56:54.181Z,1010.7
2018-04-14T18:06:54.146Z,1010.7
2018-04-14T18:16:54.201Z,1010.69
2018-04-14T18:26:54.163Z,1010.62
2018-04-14T18:36:54.168Z,1010.72
2018-04-14T18:46:54.170Z,1010.81
2018-04-14T18:56:54.233Z,1010.88
2018-04-14T19:06:54.199Z,1010.91
2018-04-14T19:16:54.131Z,1010.88
2018-04-14T19:26:54.349Z,1010.86
2018-04-14T19:36:54.160Z,1010.85
2018-04-14T19:46:54.197Z,1010.85
2018-04-14T19:56:54.163Z,1010.86
2018-04-14T20:06:54.238Z,1010.86
2018-04-14T20:16:54.244Z,1010.82
2018-04-14T20:26:54.141Z,1010.83
2018-04-14T20:36:54.229Z,1010.74
2018-04-14T20:46:54.199Z,1010.75
2018-04-14T20:56:54.258Z,1010.6
2018-04-14T21:06:54.224Z,1010.49
2018-04-14T21:16:54.337Z,1010.49
2018-04-14T21:26:54.233Z,1010.54
2018-04-14T21:36:54.211Z,1010.53
2018-04-14T21:46:54.288Z,1010.52
2018-04-14T21:56:54.262Z,1010.34
2018-04-14T22:06:54.394Z,1010.29
2018-04-14T22:16:55.105Z,1010.2
2018-04-14T22:26:54.339Z,1010.12
2018-04-14T22:36:56.245Z,1010.06
2018-04-14T22:46:54.253Z,1009.95
2018-04-14T22:56:54.293Z,1009.75
2018-04-14T23:06:54.386Z,1009.63
2018-04-14T23:16:54.837Z,1009.36
2018-04-14T23:26:54.317Z,1009.39
2018-04-14T23:36:56.950Z,1009.43
2018-04-14T23:46:54.346Z,1009.31
2018-04-14T23:56:54.522Z,1009.21
